createdAt,value
2023-02-11T00:00:21.947Z,26.07
2023-02-11T00:02:48.444Z,24.30
2023-02-11T00:05:15.639Z,39.10
2023-02-11T00:07:42.200Z,31.50
2023-02-11T00:10:09.356Z,29.33
2023-02-11T00:12:37.263Z,31.97
2023-02-11T00:15:05.207Z,27.07
2023-02-11T00:17:32.774Z,34.47
2023-02-11T00:19:59.347Z,33.27
2023-02-11T00:22:25.957Z,31.17
2023-02-11T00:24:52.548Z,38.07
2023-02-11T00:27:19.128Z,34.13
2023-02-11T00:29:45.647Z,39.53
2023-02-11T00:32:12.278Z,37.90
2023-02-11T00:34:38.949Z,37.47
2023-02-11T00:37:06.222Z,34.10
2023-02-11T00:39:32.894Z,35.97
2023-02-11T00:41:59.658Z,37.20
2023-02-11T00:44:27.200Z,29.97
2023-02-11T00:46:53.676Z,27.87
2023-02-11T00:49:20.217Z,37.63
2023-02-11T00:51:46.824Z,33.50
2023-02-11T00:54:13.360Z,31.40
2023-02-11T00:56:39.964Z,24.83
2023-02-11T00:59:06.738Z,26.67
2023-02-11T01:01:33.414Z,28.33
2023-02-11T01:04:00.150Z,28.90
2023-02-11T01:06:27.293Z,27.97
2023-02-11T01:08:53.807Z,29.17
2023-02-11T01:11:21.772Z,31.23
2023-02-11T01:13:49.589Z,27.13
2023-02-11T01:16:16.944Z,35.30
2023-02-11T01:18:44.368Z,33.73
2023-02-11T01:21:11.638Z,36.27
2023-02-11T01:23:38.226Z,35.30
2023-02-11T01:26:05.768Z,39.10
2023-02-11T01:28:32.935Z,32.43
2023-02-11T01:31:00.984Z,30.97
2023-02-11T01:33:27.615Z,31.27
2023-02-11T01:35:54.404Z,30.70
2023-02-11T01:38:24.145Z,34.73
2023-02-11T01:40:53.269Z,37.03
2023-02-11T01:43:20.393Z,39.00
2023-02-11T01:45:49.852Z,40.83
2023-02-11T01:48:24.703Z,38.67
2023-02-11T01:50:55.142Z,36.33
2023-02-11T01:53:40.744Z,38.03
2023-02-11T01:56:26.926Z,31.33
2023-02-11T01:59:00.657Z,33.57
2023-02-11T02:01:30.147Z,31.13
2023-02-11T02:04:01.810Z,26.57
2023-02-11T02:06:37.373Z,33.20
2023-02-11T02:09:09.563Z,28.90
2023-02-11T02:11:36.597Z,30.87
2023-02-11T02:14:03.766Z,33.73
2023-02-11T02:16:35.043Z,32.10
2023-02-11T02:19:39.240Z,28.63
2023-02-11T02:22:45.802Z,35.40
2023-02-11T02:25:28.795Z,30.80
2023-02-11T02:28:25.974Z,31.73
2023-02-11T02:31:20.396Z,33.23
2023-02-11T02:34:03.419Z,35.70
2023-02-11T02:36:50.662Z,27.53
2023-02-11T02:39:33.805Z,30.10
2023-02-11T02:42:01.932Z,30.97
2023-02-11T02:44:29.775Z,30.40
2023-02-11T02:46:56.717Z,29.03
2023-02-11T02:49:23.283Z,34.37
2023-02-11T02:52:13.305Z,35.30
2023-02-11T02:54:57.312Z,29.33
2023-02-11T02:57:40.969Z,30.70
2023-02-11T03:00:44.297Z,31.80
2023-02-11T03:03:38.030Z,28.57
2023-02-11T03:06:21.547Z,37.90
2023-02-11T03:08:55.022Z,37.13
2023-02-11T03:11:22.200Z,31.70
2023-02-11T03:13:50.867Z,28.10
2023-02-11T03:16:22.135Z,27.33
2023-02-11T03:18:53.185Z,30.70
2023-02-11T03:21:20.966Z,31.40
2023-02-11T03:23:55.755Z,34.23
2023-02-11T03:29:24.184Z,29.57
2023-02-11T03:32:07.513Z,27.23
2023-02-11T03:34:53.523Z,32.17
2023-02-11T03:37:32.040Z,31.47
2023-02-11T03:40:06.585Z,31.00
2023-02-11T03:42:39.850Z,30.40
2023-02-11T03:45:10.693Z,28.90
2023-02-11T03:47:40.758Z,34.23
2023-02-11T03:50:10.802Z,28.40
2023-02-11T03:52:38.497Z,32.13
2023-02-11T03:55:12.959Z,31.97
2023-02-11T03:57:39.694Z,27.73
2023-02-11T04:00:07.406Z,27.80
2023-02-11T04:02:36.961Z,32.17
2023-02-11T04:05:05.171Z,31.03
2023-02-11T04:07:31.670Z,30.03
2023-02-11T04:09:58.319Z,43.37
2023-02-11T04:12:24.893Z,31.57
2023-02-11T04:14:51.547Z,29.63
2023-02-11T04:17:18.669Z,26.90
2023-02-11T04:19:45.165Z,34.37
2023-02-11T04:22:11.667Z,28.30
2023-02-11T04:24:38.867Z,31.80
2023-02-11T04:27:05.451Z,22.97
2023-02-11T04:29:32.140Z,27.33
2023-02-11T04:31:58.672Z,33.83
2023-02-11T04:34:25.269Z,27.07
2023-02-11T04:36:51.885Z,30.53
2023-02-11T04:39:19.084Z,29.63
2023-02-11T04:41:45.831Z,26.90
2023-02-11T04:44:12.492Z,26.07
2023-02-11T04:46:39.171Z,29.83
2023-02-11T04:49:05.849Z,28.57
2023-02-11T04:51:32.595Z,23.83
2023-02-11T04:53:59.279Z,27.33
2023-02-11T04:56:25.829Z,28.97
2023-02-11T04:58:52.551Z,28.57
2023-02-11T05:01:19.224Z,27.67
2023-02-11T05:03:45.896Z,24.20
2023-02-11T05:06:12.539Z,28.30
2023-02-11T05:08:39.838Z,27.67
2023-02-11T05:11:07.570Z,28.70
2023-02-11T05:13:34.388Z,29.47
2023-02-11T05:16:01.006Z,27.57
2023-02-11T05:18:27.523Z,31.53
2023-02-11T05:20:54.108Z,36.23
2023-02-11T05:23:20.681Z,28.90
2023-02-11T05:25:47.159Z,25.77
2023-02-11T05:28:13.830Z,23.80
2023-02-11T05:30:40.909Z,25.40
2023-02-11T05:33:07.505Z,23.40
2023-02-11T05:35:34.064Z,24.83
2023-02-11T05:38:00.581Z,25.47
2023-02-11T05:40:27.193Z,27.57
2023-02-11T05:42:53.697Z,24.17
2023-02-11T05:45:20.269Z,23.67
2023-02-11T05:47:46.798Z,23.57
2023-02-11T05:50:13.546Z,26.10
2023-02-11T05:52:40.109Z,26.03
2023-02-11T05:55:06.984Z,17.57
2023-02-11T05:57:33.549Z,22.50
2023-02-11T06:00:00.104Z,23.10
2023-02-11T06:02:26.750Z,22.87
2023-02-11T06:04:53.407Z,18.63
2023-02-11T06:07:20.038Z,23.13
2023-02-11T06:09:46.555Z,21.97
2023-02-11T06:12:13.450Z,27.70
2023-02-11T06:14:40.062Z,23.53
2023-02-11T06:17:06.816Z,23.73
2023-02-11T06:19:33.500Z,19.50
2023-02-11T06:22:00.082Z,22.80
2023-02-11T06:24:50.976Z,22.97
2023-02-11T06:27:13.515Z,22.33
2023-02-11T06:29:40.034Z,24.47
2023-02-11T06:32:08.611Z,22.90
2023-02-11T06:34:38.546Z,27.33
2023-02-11T06:37:05.680Z,27.27
2023-02-11T06:39:32.488Z,22.27
2023-02-11T06:41:59.023Z,18.50
2023-02-11T06:44:25.708Z,27.03
2023-02-11T06:46:52.253Z,24.73
2023-02-11T06:49:18.838Z,18.73
2023-02-11T06:51:45.757Z,23.20
2023-02-11T06:54:12.988Z,22.13
2023-02-11T06:56:40.576Z,26.03
2023-02-11T06:59:07.357Z,25.03
2023-02-11T07:01:34.343Z,26.30
2023-02-11T07:04:00.916Z,24.07
2023-02-11T07:06:28.022Z,25.23
2023-02-11T07:08:55.964Z,24.70
2023-02-11T07:11:25.297Z,21.20
2023-02-11T07:13:54.611Z,27.60
2023-02-11T07:16:21.602Z,23.20
2023-02-11T07:18:49.157Z,24.47
2023-02-11T07:21:20.003Z,25.60
2023-02-11T07:23:48.326Z,21.70
2023-02-11T07:26:20.131Z,21.97
2023-02-11T07:28:47.027Z,23.43
2023-02-11T07:31:20.238Z,23.37
2023-02-11T07:33:47.574Z,21.47
2023-02-11T07:36:16.156Z,20.90
2023-02-11T07:38:43.291Z,24.77
2023-02-11T07:41:13.459Z,26.90
2023-02-11T07:43:40.890Z,24.67
2023-02-11T07:46:10.080Z,27.13
2023-02-11T07:48:36.732Z,25.73
2023-02-11T07:51:15.393Z,23.43
2023-02-11T07:53:42.550Z,21.77
2023-02-11T07:56:10.859Z,25.47
2023-02-11T07:58:37.973Z,21.60
2023-02-11T08:01:07.344Z,27.47
2023-02-11T08:03:35.368Z,23.23
2023-02-11T08:06:10.702Z,22.43
2023-02-11T08:08:37.410Z,25.97
2023-02-11T08:11:15.652Z,30.43
2023-02-11T08:13:43.193Z,31.77
2023-02-11T08:16:18.081Z,35.73
2023-02-11T08:18:44.623Z,35.53
2023-02-11T08:21:11.196Z,35.43
2023-02-11T08:23:39.553Z,33.53
2023-02-11T08:26:09.868Z,33.03
2023-02-11T08:28:38.802Z,35.80
2023-02-11T08:31:07.155Z,32.00
2023-02-11T08:33:34.753Z,26.10
2023-02-11T08:36:02.265Z,33.43
2023-02-11T08:38:28.877Z,30.70
2023-02-11T08:40:55.448Z,31.67
2023-02-11T08:43:23.617Z,30.27
2023-02-11T08:45:50.584Z,29.40
2023-02-11T08:48:17.242Z,32.67
2023-02-11T08:50:43.755Z,33.57
2023-02-11T08:53:10.395Z,33.83
2023-02-11T08:55:36.995Z,30.57
2023-02-11T08:58:03.637Z,29.13
2023-02-11T09:00:30.714Z,26.70
2023-02-11T09:02:57.391Z,31.37
2023-02-11T09:05:24.100Z,28.60
2023-02-11T09:07:50.744Z,36.63
2023-02-11T09:10:17.329Z,28.57
2023-02-11T09:12:43.820Z,30.33
2023-02-11T09:15:10.362Z,24.50
2023-02-11T09:17:36.866Z,19.37
2023-02-11T09:20:03.993Z,16.77
2023-02-11T09:22:30.508Z,20.93
2023-02-11T09:24:57.100Z,16.00
2023-02-11T09:27:23.844Z,24.53
2023-02-11T09:29:50.524Z,16.63
2023-02-11T09:32:17.191Z,22.10
2023-02-11T09:34:43.804Z,17.17
2023-02-11T09:37:10.374Z,20.20
2023-02-11T09:39:36.844Z,24.77
2023-02-11T09:42:23.553Z,20.63
2023-02-11T09:44:50.460Z,22.03
2023-02-11T09:47:28.548Z,18.87
2023-02-11T09:50:02.547Z,20.00
2023-02-11T09:52:47.457Z,21.88
2023-02-11T09:55:25.583Z,13.02
2023-02-11T09:57:52.294Z,13.47
2023-02-11T10:00:27.807Z,17.40
2023-02-11T10:03:38.038Z,21.53
2023-02-11T10:06:13.172Z,17.93
2023-02-11T10:09:13.860Z,18.30
2023-02-11T10:11:46.403Z,22.23
2023-02-11T10:14:43.249Z,17.00
2023-02-11T10:17:37.764Z,25.97
2023-02-11T10:20:04.264Z,22.33
2023-02-11T10:22:41.393Z,18.40
2023-02-11T10:25:24.792Z,20.80
2023-02-11T10:27:53.532Z,22.23
2023-02-11T10:30:34.145Z,22.73
2023-02-11T10:33:18.659Z,22.63
2023-02-11T10:35:45.760Z,21.65
2023-02-11T10:38:12.456Z,24.10
2023-02-11T10:40:40.062Z,18.87
2023-02-11T10:43:13.420Z,25.33
2023-02-11T10:45:47.021Z,20.10
2023-02-11T10:48:36.503Z,19.08
2023-02-11T10:51:17.462Z,22.27
2023-02-11T10:53:45.410Z,22.60
2023-02-11T10:56:22.163Z,23.58
2023-02-11T10:59:05.420Z,38.30
2023-02-11T11:01:43.661Z,18.00
2023-02-11T11:04:27.103Z,19.90
2023-02-11T11:06:53.634Z,17.95
2023-02-11T11:09:31.211Z,22.52
2023-02-11T11:11:58.146Z,17.95
2023-02-11T11:14:29.461Z,17.80
2023-02-11T11:16:56.174Z,22.35
2023-02-11T11:19:24.770Z,21.15
2023-02-11T11:21:54.100Z,20.38
2023-02-11T11:24:44.995Z,22.60
2023-02-11T11:27:19.644Z,17.80
2023-02-11T11:29:52.062Z,15.65
2023-02-11T11:32:32.495Z,14.30
2023-02-11T11:35:03.630Z,18.85
2023-02-11T11:37:34.562Z,24.48
2023-02-11T11:40:16.368Z,18.55
2023-02-11T11:42:43.728Z,22.30
2023-02-11T11:45:16.415Z,18.92
2023-02-11T11:48:06.245Z,18.27
2023-02-11T11:50:45.219Z,23.42
2023-02-11T11:53:20.533Z,34.78
2023-02-11T11:56:09.695Z,21.48
2023-02-11T11:58:36.230Z,18.42
2023-02-11T12:01:40.382Z,19.85
2023-02-11T12:04:18.734Z,20.30
2023-02-11T12:07:08.401Z,20.02
2023-02-11T12:09:50.051Z,16.95
2023-02-11T12:12:41.315Z,22.42
2023-02-11T12:15:36.615Z,21.52
2023-02-11T12:18:33.152Z,19.10
2023-02-11T12:21:30.241Z,22.70
2023-02-11T12:24:12.046Z,19.83
2023-02-11T12:26:51.782Z,25.13
2023-02-11T12:29:37.438Z,18.52
2023-02-11T12:32:19.833Z,22.55
2023-02-11T12:35:40.201Z,19.88
2023-02-11T12:38:26.136Z,21.02
2023-02-11T12:40:55.672Z,19.23
2023-02-11T12:43:26.545Z,22.20
2023-02-11T12:46:11.578Z,20.52
2023-02-11T12:51:14.482Z,15.45
2023-02-11T12:53:43.954Z,20.42
2023-02-11T12:56:31.020Z,12.55
2023-02-11T12:59:00.682Z,15.77
2023-02-11T13:01:32.524Z,17.75
2023-02-11T13:04:30.778Z,14.43
2023-02-11T13:07:02.371Z,15.88
2023-02-11T13:09:36.780Z,11.27
2023-02-11T13:12:25.426Z,17.05
2023-02-11T13:14:57.015Z,18.35
2023-02-11T13:17:48.373Z,20.17
2023-02-11T13:20:46.708Z,14.70
2023-02-11T13:23:15.953Z,12.70
2023-02-11T13:25:46.425Z,16.58
2023-02-11T13:28:32.389Z,13.57
2023-02-11T13:31:03.982Z,17.20
2023-02-11T13:33:43.061Z,16.98
2023-02-11T13:36:09.473Z,16.63
2023-02-11T13:38:37.732Z,15.95
2023-02-11T13:41:06.613Z,15.45
2023-02-11T13:43:36.441Z,17.70
2023-02-11T13:46:07.089Z,16.17
2023-02-11T13:48:38.044Z,16.05
2023-02-11T13:51:10.650Z,19.95
2023-02-11T13:53:50.408Z,17.88
2023-02-11T13:56:32.394Z,12.75
2023-02-11T13:59:02.306Z,15.98
2023-02-11T14:02:07.665Z,20.17
2023-02-11T14:04:52.926Z,15.13
2023-02-11T14:07:48.129Z,17.25
2023-02-11T14:10:42.626Z,17.08
2023-02-11T14:13:29.278Z,18.02
2023-02-11T14:16:15.849Z,18.42
2023-02-11T14:18:52.613Z,16.40
2023-02-11T14:21:30.540Z,13.40
2023-02-11T14:24:04.829Z,12.80
2023-02-11T14:26:56.153Z,14.38
2023-02-11T14:29:37.520Z,14.60
2023-02-11T14:32:25.202Z,14.35
2023-02-11T14:34:51.640Z,11.88
2023-02-11T14:37:22.568Z,38.30
2023-02-11T14:40:18.696Z,14.15
2023-02-11T14:42:45.543Z,15.40
2023-02-11T14:45:20.151Z,11.90
2023-02-11T14:50:27.500Z,13.05
2023-02-11T14:52:55.808Z,12.73
2023-02-11T14:55:35.686Z,11.07
2023-02-11T14:58:17.882Z,11.18
2023-02-11T15:01:22.375Z,14.85
2023-02-11T15:03:50.033Z,11.95
2023-02-11T15:06:23.225Z,10.32
2023-02-11T15:09:01.014Z,14.40
2023-02-11T15:11:32.169Z,15.13
2023-02-11T15:14:07.307Z,23.02
2023-02-11T15:16:35.090Z,17.27
2023-02-11T15:19:05.274Z,12.73
2023-02-11T15:21:35.696Z,10.02
2023-02-11T15:24:30.879Z,10.95
2023-02-11T15:26:58.279Z,10.32
2023-02-11T15:29:26.861Z,8.10
2023-02-11T15:32:13.657Z,10.70
2023-02-11T15:34:40.506Z,10.20
2023-02-11T15:37:07.909Z,14.15
2023-02-11T15:39:38.462Z,10.75
2023-02-11T15:42:35.837Z,12.75
2023-02-11T15:45:16.216Z,10.10
2023-02-11T15:47:50.798Z,12.82
2023-02-11T15:53:17.033Z,13.32
2023-02-11T15:55:44.150Z,11.32
2023-02-11T15:58:11.213Z,11.70
2023-02-11T16:00:47.098Z,10.35
2023-02-11T16:03:32.353Z,9.85
2023-02-11T16:06:35.423Z,11.27
2023-02-11T16:09:13.532Z,12.27
2023-02-11T16:11:46.242Z,9.65
2023-02-11T16:14:27.995Z,11.35
2023-02-11T16:16:58.734Z,10.68
2023-02-11T16:19:27.196Z,9.43
2023-02-11T16:21:55.326Z,11.93
2023-02-11T16:24:28.967Z,15.25
2023-02-11T16:27:01.143Z,11.25
2023-02-11T16:29:33.105Z,14.73
2023-02-11T16:32:16.520Z,17.48
2023-02-11T16:34:43.107Z,13.23
2023-02-11T16:37:09.896Z,19.38
2023-02-11T16:39:36.505Z,10.48
2023-02-11T16:42:05.742Z,15.35
2023-02-11T16:44:34.399Z,12.73
2023-02-11T16:47:03.277Z,14.55
2023-02-11T16:49:35.949Z,14.98
2023-02-11T16:52:07.725Z,13.13
2023-02-11T16:54:34.812Z,14.27
2023-02-11T16:57:02.595Z,13.13
2023-02-11T16:59:29.202Z,17.15
2023-02-11T17:01:57.064Z,12.05
2023-02-11T17:04:29.484Z,18.20
2023-02-11T17:06:58.373Z,16.80
2023-02-11T17:09:30.297Z,16.92
2023-02-11T17:11:57.580Z,15.18
2023-02-11T17:14:24.174Z,15.32
2023-02-11T17:16:50.717Z,19.55
2023-02-11T17:19:20.902Z,17.15
2023-02-11T17:21:49.837Z,16.85
2023-02-11T17:24:17.125Z,16.15
2023-02-11T17:26:45.015Z,14.88
2023-02-11T17:29:14.724Z,20.98
2023-02-11T17:31:42.001Z,18.50
2023-02-11T17:34:08.816Z,15.15
2023-02-11T17:36:35.300Z,19.40
2023-02-11T17:39:03.264Z,15.80
2023-02-11T17:41:31.432Z,15.48
2023-02-11T17:43:58.890Z,14.35
2023-02-11T17:46:25.501Z,15.50
2023-02-11T17:48:53.217Z,17.48
2023-02-11T17:51:27.028Z,15.77
2023-02-11T17:53:53.941Z,13.73
2023-02-11T17:56:21.400Z,16.25
2023-02-11T17:58:47.869Z,16.98
2023-02-11T18:01:14.702Z,18.33
2023-02-11T18:03:41.370Z,15.38
2023-02-11T18:06:08.170Z,14.05
2023-02-11T18:08:35.748Z,18.17
2023-02-11T18:11:02.882Z,20.17
2023-02-11T18:13:29.476Z,14.73
2023-02-11T18:16:01.513Z,19.58
2023-02-11T18:18:28.007Z,16.38
2023-02-11T18:21:03.905Z,17.17
2023-02-11T18:23:30.775Z,19.67
2023-02-11T18:25:57.324Z,18.73
2023-02-11T18:28:23.910Z,16.60
2023-02-11T18:30:58.683Z,15.52
2023-02-11T18:35:52.965Z,15.73
2023-02-11T18:38:19.782Z,21.27
2023-02-11T18:40:47.527Z,21.55
2023-02-11T18:43:14.406Z,21.80
2023-02-11T18:45:45.312Z,15.52
2023-02-11T18:48:12.474Z,17.88
2023-02-11T18:50:44.545Z,19.75
2023-02-11T18:53:15.980Z,24.17
2023-02-11T18:55:44.474Z,12.95
2023-02-11T18:58:11.392Z,18.85
2023-02-11T19:00:41.443Z,20.15
2023-02-11T19:03:08.385Z,22.52
2023-02-11T19:05:48.799Z,23.85
2023-02-11T19:08:16.998Z,17.88
2023-02-11T19:10:46.373Z,24.58
2023-02-11T19:13:13.990Z,20.05
2023-02-11T19:15:42.625Z,18.75
2023-02-11T19:18:09.509Z,17.42
2023-02-11T19:20:39.519Z,21.27
2023-02-11T19:23:06.039Z,19.75
2023-02-11T19:25:32.613Z,22.52
2023-02-11T19:28:00.369Z,24.90
2023-02-11T19:30:27.301Z,22.30
2023-02-11T19:32:57.011Z,20.45
2023-02-11T19:35:24.359Z,18.98
2023-02-11T19:37:50.862Z,20.08
2023-02-11T19:40:17.679Z,25.75
2023-02-11T19:42:44.344Z,22.52
2023-02-11T19:45:10.913Z,25.75
2023-02-11T19:47:37.524Z,20.80
2023-02-11T19:50:05.419Z,24.85
2023-02-11T19:52:32.250Z,25.85
2023-02-11T19:54:59.064Z,23.90
2023-02-11T19:57:25.645Z,23.83
2023-02-11T19:59:54.812Z,20.90
2023-02-11T20:02:21.351Z,20.77
2023-02-11T20:04:48.090Z,18.67
2023-02-11T20:07:14.735Z,21.13
2023-02-11T20:09:42.544Z,21.60
2023-02-11T20:12:09.789Z,24.60
2023-02-11T20:14:36.377Z,24.23
2023-02-11T20:17:02.936Z,22.73
2023-02-11T20:19:30.671Z,24.23
2023-02-11T20:21:57.556Z,24.67
2023-02-11T20:24:25.611Z,23.92
2023-02-11T20:26:55.613Z,23.88
2023-02-11T20:29:24.501Z,27.33
2023-02-11T20:31:51.413Z,25.08
2023-02-11T20:34:18.724Z,32.15
2023-02-11T20:36:52.303Z,25.63
2023-02-11T20:39:21.831Z,24.52
2023-02-11T20:41:49.378Z,27.73
2023-02-11T20:44:16.291Z,30.25
2023-02-11T20:46:46.577Z,32.85
2023-02-11T20:49:15.394Z,30.13
2023-02-11T20:51:42.559Z,28.63
2023-02-11T20:54:13.154Z,27.23
2023-02-11T20:56:39.849Z,29.85
2023-02-11T20:59:06.496Z,26.58
2023-02-11T21:01:40.277Z,29.08
2023-02-11T21:04:10.945Z,43.72
2023-02-11T21:06:41.300Z,27.60
2023-02-11T21:09:11.363Z,25.80
2023-02-11T21:11:38.013Z,25.35
2023-02-11T21:14:04.649Z,27.80
2023-02-11T21:16:32.480Z,28.90
2023-02-11T21:19:00.627Z,31.20
2023-02-11T21:21:27.219Z,32.08
2023-02-11T21:23:53.791Z,30.38
2023-02-11T21:26:20.328Z,32.22
2023-02-11T21:28:48.758Z,28.27
2023-02-11T21:31:22.426Z,33.92
2023-02-11T21:33:50.344Z,30.20
2023-02-11T21:36:17.619Z,31.35
2023-02-11T21:38:44.379Z,32.53
2023-02-11T21:41:11.771Z,27.95
2023-02-11T21:43:38.756Z,33.95
2023-02-11T21:46:11.265Z,31.80
2023-02-11T21:48:38.173Z,30.48
2023-02-11T21:51:07.066Z,34.05
2023-02-11T21:53:34.709Z,29.15
2023-02-11T21:56:05.937Z,33.70
2023-02-11T21:58:32.704Z,28.80
2023-02-11T22:00:59.507Z,34.42
2023-02-11T22:03:26.028Z,30.63
2023-02-11T22:05:52.812Z,30.65
2023-02-11T22:08:20.320Z,31.83
2023-02-11T22:10:46.965Z,28.05
2023-02-11T22:13:13.443Z,27.40
2023-02-11T22:15:39.917Z,30.15
2023-02-11T22:18:06.388Z,30.52
2023-02-11T22:20:32.919Z,25.15
2023-02-11T22:22:59.567Z,32.70
2023-02-11T22:25:26.071Z,29.00
2023-02-11T22:27:52.663Z,31.48
2023-02-11T22:30:19.331Z,29.02
2023-02-11T22:32:47.402Z,28.35
2023-02-11T22:35:13.964Z,25.25
2023-02-11T22:37:40.530Z,30.60
2023-02-11T22:40:07.747Z,31.42
2023-02-11T22:42:34.215Z,28.83
2023-02-11T22:45:00.785Z,27.30
2023-02-11T22:47:27.618Z,26.15
2023-02-11T22:49:54.129Z,35.08
2023-02-11T22:52:22.414Z,29.98
2023-02-11T22:54:51.094Z,28.10
2023-02-11T22:57:17.864Z,29.85
2023-02-11T22:59:44.484Z,29.95
2023-02-11T23:02:11.178Z,29.15
2023-02-11T23:04:38.014Z,27.83
2023-02-11T23:07:04.600Z,25.10
2023-02-11T23:09:31.207Z,28.10
2023-02-11T23:11:57.936Z,30.67
2023-02-11T23:14:24.527Z,36.20
2023-02-11T23:16:51.578Z,34.05
2023-02-11T23:19:18.788Z,39.13
2023-02-11T23:21:45.528Z,34.17
2023-02-11T23:24:14.800Z,34.20
2023-02-11T23:26:43.071Z,35.28
2023-02-11T23:29:10.480Z,37.38
2023-02-11T23:31:40.383Z,34.90
2023-02-11T23:34:08.270Z,36.25
2023-02-11T23:36:34.935Z,39.47
2023-02-11T23:39:01.791Z,61.20
2023-02-11T23:41:28.736Z,43.15
2023-02-11T23:43:57.926Z,39.42
2023-02-11T23:46:26.973Z,34.50
2023-02-11T23:48:53.764Z,44.20
2023-02-11T23:51:21.125Z,33.00
2023-02-11T23:53:49.398Z,33.47
2023-02-11T23:56:22.795Z,29.70
2023-02-11T23:58:51.395Z,32.00
